<?xml version="1.0" encoding="UTF-8"?>
<gpx xmlns="http://www.topografix.com/GPX/1/1" xmlns:xsi="http://www.w3.org/2001/XMLSchema-instance" version="1.1" xsi:schemaLocation="http://www.topografix.com/GPX/1/1 http://www.topografix.com/GPX/1/1/gpx.xsd">
  <metadata>
    <name>Fort De Soto Trilogy - Sprint Aquabike</name>
  </metadata>
  <trk>
    <name>Fort De Soto Trilogy - Sprint Aquabike</name>
    <trkseg>
      <trkpt lat="27.638892" lon="-82.73801">
        <ele>0.999999</ele>
        <time>2024-06-02T07:08:00.000Z</time>
      </trkpt>
      <trkpt lat="27.637626" lon="-82.737353">
        <ele>1.000005</ele>
        <time>2024-06-02T07:08:15.000Z</time>
      </trkpt>
      <trkpt lat="27.637682" lon="-82.737164">
        <ele>0.999996</ele>
        <time>2024-06-02T07:08:17.000Z</time>
      </trkpt>
      <trkpt lat="27.637862" lon="-82.73671">
        <ele>0.999999</ele>
        <time>2024-06-02T07:08:22.000Z</time>
      </trkpt>
      <trkpt lat="27.637473" lon="-82.73652">
        <ele>0.999998</ele>
        <time>2024-06-02T07:08:27.000Z</time>
      </trkpt>
      <trkpt lat="27.635878" lon="-82.735677">
        <ele>1.000002</ele>
        <time>2024-06-02T07:08:47.000Z</time>
      </trkpt>
      <trkpt lat="27.635525" lon="-82.735544">
        <ele>1.000007</ele>
        <time>2024-06-02T07:08:51.000Z</time>
      </trkpt>
      <trkpt lat="27.634834" lon="-82.735319">
        <ele>1</ele>
        <time>2024-06-02T07:08:59.000Z</time>
      </trkpt>
      <trkpt lat="27.634227" lon="-82.735156">
        <ele>1.000004</ele>
        <time>2024-06-02T07:09:06.000Z</time>
      </trkpt>
      <trkpt lat="27.633755" lon="-82.735094">
        <ele>1.000213</ele>
        <time>2024-06-02T07:09:11.000Z</time>
      </trkpt>
      <trkpt lat="27.633343" lon="-82.735057">
        <ele>1.001075</ele>
        <time>2024-06-02T07:09:16.000Z</time>
      </trkpt>
      <trkpt lat="27.632004" lon="-82.735036">
        <ele>1.005104</ele>
        <time>2024-06-02T07:09:31.000Z</time>
      </trkpt>
      <trkpt lat="27.631932" lon="-82.735051">
        <ele>1.006237</ele>
        <time>2024-06-02T07:09:32.000Z</time>
      </trkpt>
      <trkpt lat="27.62747" lon="-82.734983">
        <ele>1.165684</ele>
        <time>2024-06-02T07:10:22.000Z</time>
      </trkpt>
      <trkpt lat="27.61863" lon="-82.734857">
        <ele>2.479787</ele>
        <time>2024-06-02T07:12:00.000Z</time>
      </trkpt>
      <trkpt lat="27.617926" lon="-82.734844">
        <ele>2.498742</ele>
        <time>2024-06-02T07:12:08.000Z</time>
      </trkpt>
      <trkpt lat="27.617133" lon="-82.734816">
        <ele>2.32121</ele>
        <time>2024-06-02T07:12:17.000Z</time>
      </trkpt>
      <trkpt lat="27.616755" lon="-82.734727">
        <ele>2.185095</ele>
        <time>2024-06-02T07:12:21.000Z</time>
      </trkpt>
      <trkpt lat="27.616375" lon="-82.734537">
        <ele>2.042468</ele>
        <time>2024-06-02T07:12:26.000Z</time>
      </trkpt>
      <trkpt lat="27.615926" lon="-82.734125">
        <ele>1.838526</ele>
        <time>2024-06-02T07:12:32.000Z</time>
      </trkpt>
      <trkpt lat="27.615759" lon="-82.733908">
        <ele>1.746813</ele>
        <time>2024-06-02T07:12:35.000Z</time>
      </trkpt>
      <trkpt lat="27.61561" lon="-82.733623">
        <ele>1.636569</ele>
        <time>2024-06-02T07:12:38.000Z</time>
      </trkpt>
      <trkpt lat="27.615456" lon="-82.733182">
        <ele>1.482641</ele>
        <time>2024-06-02T07:12:43.000Z</time>
      </trkpt>
      <trkpt lat="27.615387" lon="-82.732556">
        <ele>1.275629</ele>
        <time>2024-06-02T07:12:49.000Z</time>
      </trkpt>
      <trkpt lat="27.615431" lon="-82.73226">
        <ele>1.208624</ele>
        <time>2024-06-02T07:12:52.000Z</time>
      </trkpt>
      <trkpt lat="27.615488" lon="-82.731956">
        <ele>1.178456</ele>
        <time>2024-06-02T07:12:55.000Z</time>
      </trkpt>
      <trkpt lat="27.615612" lon="-82.731557">
        <ele>1.139035</ele>
        <time>2024-06-02T07:12:59.000Z</time>
      </trkpt>
      <trkpt lat="27.616192" lon="-82.730339">
        <ele>1.024161</ele>
        <time>2024-06-02T07:13:13.000Z</time>
      </trkpt>
      <trkpt lat="27.616427" lon="-82.729862">
        <ele>1.016837</ele>
        <time>2024-06-02T07:13:18.000Z</time>
      </trkpt>
      <trkpt lat="27.617166" lon="-82.728298">
        <ele>0.999993</ele>
        <time>2024-06-02T07:13:35.000Z</time>
      </trkpt>
      <trkpt lat="27.617396" lon="-82.727782">
        <ele>0.999994</ele>
        <time>2024-06-02T07:13:41.000Z</time>
      </trkpt>
      <trkpt lat="27.618037" lon="-82.726409">
        <ele>1.000001</ele>
        <time>2024-06-02T07:13:56.000Z</time>
      </trkpt>
      <trkpt lat="27.620024" lon="-82.722125">
        <ele>0.999992</ele>
        <time>2024-06-02T07:14:44.000Z</time>
      </trkpt>
      <trkpt lat="27.62334" lon="-82.715011">
        <ele>0.999991</ele>
        <time>2024-06-02T07:16:03.000Z</time>
      </trkpt>
      <trkpt lat="27.623664" lon="-82.714284">
        <ele>0.999991</ele>
        <time>2024-06-02T07:16:11.000Z</time>
      </trkpt>
      <trkpt lat="27.623787" lon="-82.714012">
        <ele>0.999997</ele>
        <time>2024-06-02T07:16:14.000Z</time>
      </trkpt>
      <trkpt lat="27.624198" lon="-82.713164">
        <ele>0.999994</ele>
        <time>2024-06-02T07:16:24.000Z</time>
      </trkpt>
      <trkpt lat="27.624582" lon="-82.712349">
        <ele>0.999991</ele>
        <time>2024-06-02T07:16:33.000Z</time>
      </trkpt>
      <trkpt lat="27.62496" lon="-82.711517">
        <ele>1.000005</ele>
        <time>2024-06-02T07:16:42.000Z</time>
      </trkpt>
      <trkpt lat="27.625577" lon="-82.710206">
        <ele>0.999996</ele>
        <time>2024-06-02T07:16:57.000Z</time>
      </trkpt>
      <trkpt lat="27.625922" lon="-82.709465">
        <ele>1.000007</ele>
        <time>2024-06-02T07:17:05.000Z</time>
      </trkpt>
      <trkpt lat="27.626211" lon="-82.708843">
        <ele>0.999999</ele>
        <time>2024-06-02T07:17:12.000Z</time>
      </trkpt>
      <trkpt lat="27.626683" lon="-82.707821">
        <ele>0.999991</ele>
        <time>2024-06-02T07:17:23.000Z</time>
      </trkpt>
      <trkpt lat="27.627154" lon="-82.706818">
        <ele>0.999993</ele>
        <time>2024-06-02T07:17:34.000Z</time>
      </trkpt>
      <trkpt lat="27.627759" lon="-82.705607">
        <ele>0.999997</ele>
        <time>2024-06-02T07:17:48.000Z</time>
      </trkpt>
      <trkpt lat="27.627951" lon="-82.705281">
        <ele>0.999992</ele>
        <time>2024-06-02T07:17:52.000Z</time>
      </trkpt>
      <trkpt lat="27.628225" lon="-82.704884">
        <ele>0.999991</ele>
        <time>2024-06-02T07:17:57.000Z</time>
      </trkpt>
      <trkpt lat="27.628404" lon="-82.70465">
        <ele>1.000003</ele>
        <time>2024-06-02T07:18:00.000Z</time>
      </trkpt>
      <trkpt lat="27.628527" lon="-82.704498">
        <ele>0.999999</ele>
        <time>2024-06-02T07:18:02.000Z</time>
      </trkpt>
      <trkpt lat="27.62882" lon="-82.704143">
        <ele>1.000003</ele>
        <time>2024-06-02T07:18:07.000Z</time>
      </trkpt>
      <trkpt lat="27.629458" lon="-82.703517">
        <ele>1</ele>
        <time>2024-06-02T07:18:16.000Z</time>
      </trkpt>
      <trkpt lat="27.629802" lon="-82.703242">
        <ele>0.999991</ele>
        <time>2024-06-02T07:18:21.000Z</time>
      </trkpt>
      <trkpt lat="27.630492" lon="-82.702759">
        <ele>0.999994</ele>
        <time>2024-06-02T07:18:30.000Z</time>
      </trkpt>
      <trkpt lat="27.631339" lon="-82.702294">
        <ele>0.999992</ele>
        <time>2024-06-02T07:18:40.000Z</time>
      </trkpt>
      <trkpt lat="27.636594" lon="-82.699666">
        <ele>0.999995</ele>
        <time>2024-06-02T07:19:44.000Z</time>
      </trkpt>
      <trkpt lat="27.636763" lon="-82.699443">
        <ele>1.000005</ele>
        <time>2024-06-02T07:19:47.000Z</time>
      </trkpt>
      <trkpt lat="27.637009" lon="-82.69893">
        <ele>1.000004</ele>
        <time>2024-06-02T07:19:53.000Z</time>
      </trkpt>
      <trkpt lat="27.637067" lon="-82.698769">
        <ele>0.999999</ele>
        <time>2024-06-02T07:19:55.000Z</time>
      </trkpt>
      <trkpt lat="27.637138" lon="-82.698702">
        <ele>0.999998</ele>
        <time>2024-06-02T07:19:56.000Z</time>
      </trkpt>
      <trkpt lat="27.637236" lon="-82.698657">
        <ele>0.999999</ele>
        <time>2024-06-02T07:19:57.000Z</time>
      </trkpt>
      <trkpt lat="27.63733" lon="-82.698646">
        <ele>1.000003</ele>
        <time>2024-06-02T07:19:58.000Z</time>
      </trkpt>
      <trkpt lat="27.63746" lon="-82.698687">
        <ele>1.000003</ele>
        <time>2024-06-02T07:20:00.000Z</time>
      </trkpt>
      <trkpt lat="27.637538" lon="-82.698765">
        <ele>0.999992</ele>
        <time>2024-06-02T07:20:01.000Z</time>
      </trkpt>
      <trkpt lat="27.637594" lon="-82.698877">
        <ele>0.999991</ele>
        <time>2024-06-02T07:20:02.000Z</time>
      </trkpt>
      <trkpt lat="27.637601" lon="-82.698979">
        <ele>0.999995</ele>
        <time>2024-06-02T07:20:03.000Z</time>
      </trkpt>
      <trkpt lat="27.637543" lon="-82.699171">
        <ele>0.999992</ele>
        <time>2024-06-02T07:20:05.000Z</time>
      </trkpt>
      <trkpt lat="27.637477" lon="-82.699247">
        <ele>1.000002</ele>
        <time>2024-06-02T07:20:06.000Z</time>
      </trkpt>
      <trkpt lat="27.637384" lon="-82.699303">
        <ele>0.999993</ele>
        <time>2024-06-02T07:20:07.000Z</time>
      </trkpt>
      <trkpt lat="27.636594" lon="-82.699667">
        <ele>0.999993</ele>
        <time>2024-06-02T07:20:16.000Z</time>
      </trkpt>
      <trkpt lat="27.631342" lon="-82.702293">
        <ele>1.000004</ele>
        <time>2024-06-02T07:21:20.000Z</time>
      </trkpt>
      <trkpt lat="27.630495" lon="-82.702753">
        <ele>0.999997</ele>
        <time>2024-06-02T07:21:30.000Z</time>
      </trkpt>
      <trkpt lat="27.629802" lon="-82.703256">
        <ele>1.000007</ele>
        <time>2024-06-02T07:21:39.000Z</time>
      </trkpt>
      <trkpt lat="27.629467" lon="-82.703529">
        <ele>0.999998</ele>
        <time>2024-06-02T07:21:44.000Z</time>
      </trkpt>
      <trkpt lat="27.628829" lon="-82.704144">
        <ele>1.000006</ele>
        <time>2024-06-02T07:21:53.000Z</time>
      </trkpt>
      <trkpt lat="27.62853" lon="-82.704499">
        <ele>1</ele>
        <time>2024-06-02T07:21:58.000Z</time>
      </trkpt>
      <trkpt lat="27.628395" lon="-82.704652">
        <ele>0.999997</ele>
        <time>2024-06-02T07:22:00.000Z</time>
      </trkpt>
      <trkpt lat="27.628234" lon="-82.704878">
        <ele>1.000005</ele>
        <time>2024-06-02T07:22:03.000Z</time>
      </trkpt>
      <trkpt lat="27.627941" lon="-82.705288">
        <ele>1.000006</ele>
        <time>2024-06-02T07:22:08.000Z</time>
      </trkpt>
      <trkpt lat="27.627751" lon="-82.70561">
        <ele>0.999998</ele>
        <time>2024-06-02T07:22:12.000Z</time>
      </trkpt>
      <trkpt lat="27.627151" lon="-82.706814">
        <ele>1.000007</ele>
        <time>2024-06-02T07:22:26.000Z</time>
      </trkpt>
      <trkpt lat="27.626684" lon="-82.70781">
        <ele>0.999992</ele>
        <time>2024-06-02T07:22:37.000Z</time>
      </trkpt>
      <trkpt lat="27.626208" lon="-82.708826">
        <ele>1.000008</ele>
        <time>2024-06-02T07:22:48.000Z</time>
      </trkpt>
      <trkpt lat="27.625912" lon="-82.709463">
        <ele>0.999995</ele>
        <time>2024-06-02T07:22:55.000Z</time>
      </trkpt>
      <trkpt lat="27.625572" lon="-82.710205">
        <ele>0.999993</ele>
        <time>2024-06-02T07:23:03.000Z</time>
      </trkpt>
      <trkpt lat="27.624972" lon="-82.711517">
        <ele>0.999996</ele>
        <time>2024-06-02T07:23:18.000Z</time>
      </trkpt>
      <trkpt lat="27.62458" lon="-82.712345">
        <ele>0.999994</ele>
        <time>2024-06-02T07:23:27.000Z</time>
      </trkpt>
      <trkpt lat="27.624192" lon="-82.713162">
        <ele>0.999996</ele>
        <time>2024-06-02T07:23:36.000Z</time>
      </trkpt>
      <trkpt lat="27.623787" lon="-82.714016">
        <ele>0.999998</ele>
        <time>2024-06-02T07:23:46.000Z</time>
      </trkpt>
      <trkpt lat="27.623652" lon="-82.714295">
        <ele>1.000004</ele>
        <time>2024-06-02T07:23:49.000Z</time>
      </trkpt>
      <trkpt lat="27.623334" lon="-82.71501">
        <ele>0.999993</ele>
        <time>2024-06-02T07:23:57.000Z</time>
      </trkpt>
      <trkpt lat="27.620031" lon="-82.722132">
        <ele>0.999999</ele>
        <time>2024-06-02T07:25:16.000Z</time>
      </trkpt>
      <trkpt lat="27.61805" lon="-82.726408">
        <ele>0.999999</ele>
        <time>2024-06-02T07:26:04.000Z</time>
      </trkpt>
      <trkpt lat="27.617396" lon="-82.727793">
        <ele>0.999996</ele>
        <time>2024-06-02T07:26:19.000Z</time>
      </trkpt>
      <trkpt lat="27.617159" lon="-82.7283">
        <ele>1.000006</ele>
        <time>2024-06-02T07:26:25.000Z</time>
      </trkpt>
      <trkpt lat="27.616431" lon="-82.729857">
        <ele>1.016561</ele>
        <time>2024-06-02T07:26:42.000Z</time>
      </trkpt>
      <trkpt lat="27.616192" lon="-82.730334">
        <ele>1.023698</ele>
        <time>2024-06-02T07:26:47.000Z</time>
      </trkpt>
      <trkpt lat="27.615616" lon="-82.731557">
        <ele>1.134019</ele>
        <time>2024-06-02T07:27:01.000Z</time>
      </trkpt>
      <trkpt lat="27.615474" lon="-82.731955">
        <ele>1.171358</ele>
        <time>2024-06-02T07:27:05.000Z</time>
      </trkpt>
      <trkpt lat="27.615393" lon="-82.732557">
        <ele>1.27101</ele>
        <time>2024-06-02T07:27:11.000Z</time>
      </trkpt>
      <trkpt lat="27.615446" lon="-82.733182">
        <ele>1.479129</ele>
        <time>2024-06-02T07:27:17.000Z</time>
      </trkpt>
      <trkpt lat="27.615596" lon="-82.733628">
        <ele>1.633883</ele>
        <time>2024-06-02T07:27:22.000Z</time>
      </trkpt>
      <trkpt lat="27.61576" lon="-82.733915">
        <ele>1.744713</ele>
        <time>2024-06-02T07:27:25.000Z</time>
      </trkpt>
      <trkpt lat="27.615927" lon="-82.734124">
        <ele>1.836908</ele>
        <time>2024-06-02T07:27:28.000Z</time>
      </trkpt>
      <trkpt lat="27.616371" lon="-82.734547">
        <ele>2.041917</ele>
        <time>2024-06-02T07:27:34.000Z</time>
      </trkpt>
      <trkpt lat="27.616753" lon="-82.734722">
        <ele>2.185647</ele>
        <time>2024-06-02T07:27:39.000Z</time>
      </trkpt>
      <trkpt lat="27.617127" lon="-82.734818">
        <ele>2.322811</ele>
        <time>2024-06-02T07:27:43.000Z</time>
      </trkpt>
      <trkpt lat="27.617928" lon="-82.734845">
        <ele>2.496411</ele>
        <time>2024-06-02T07:27:52.000Z</time>
      </trkpt>
      <trkpt lat="27.618624" lon="-82.734843">
        <ele>2.479555</ele>
        <time>2024-06-02T07:28:00.000Z</time>
      </trkpt>
      <trkpt lat="27.627483" lon="-82.734978">
        <ele>1.1533</ele>
        <time>2024-06-02T07:29:39.000Z</time>
      </trkpt>
      <trkpt lat="27.629468" lon="-82.735001">
        <ele>1.0224</ele>
        <time>2024-06-02T07:30:01.000Z</time>
      </trkpt>
      <trkpt lat="27.631932" lon="-82.735037">
        <ele>0.937493483333</ele>
        <time>2024-06-02T07:30:28.000Z</time>
      </trkpt>
      <trkpt lat="27.632005" lon="-82.735041">
        <ele>0.934975238626</ele>
        <time>2024-06-02T07:30:29.000Z</time>
      </trkpt>
      <trkpt lat="27.633353" lon="-82.73506">
        <ele>0.888525027727</ele>
        <time>2024-06-02T07:30:44.000Z</time>
      </trkpt>
      <trkpt lat="27.633766" lon="-82.735088">
        <ele>0.874269084409</ele>
        <time>2024-06-02T07:30:49.000Z</time>
      </trkpt>
      <trkpt lat="27.634233" lon="-82.735166">
        <ele>0.85800296178</ele>
        <time>2024-06-02T07:30:54.000Z</time>
      </trkpt>
      <trkpt lat="27.634842" lon="-82.735303">
        <ele>0.836606633702</ele>
        <time>2024-06-02T07:31:01.000Z</time>
      </trkpt>
      <trkpt lat="27.635526" lon="-82.73553">
        <ele>0.812041257426</ele>
        <time>2024-06-02T07:31:09.000Z</time>
      </trkpt>
      <trkpt lat="27.63588" lon="-82.735675">
        <ele>0.799065621722</ele>
        <time>2024-06-02T07:31:13.000Z</time>
      </trkpt>
      <trkpt lat="27.637475" lon="-82.736517">
        <ele>0.738395378535</ele>
        <time>2024-06-02T07:31:33.000Z</time>
      </trkpt>
      <trkpt lat="27.63787" lon="-82.736716">
        <ele>0.723491267286</ele>
        <time>2024-06-02T07:31:38.000Z</time>
      </trkpt>
      <trkpt lat="27.639253" lon="-82.73743">
        <ele>0.671091302364</ele>
        <time>2024-06-02T07:31:55.000Z</time>
      </trkpt>
      <trkpt lat="27.639829" lon="-82.737726">
        <ele>0.649284861043</ele>
        <time>2024-06-02T07:32:02.000Z</time>
      </trkpt>
      <trkpt lat="27.64182" lon="-82.738771">
        <ele>0.573630197545</ele>
        <time>2024-06-02T07:32:26.000Z</time>
      </trkpt>
      <trkpt lat="27.642227" lon="-82.738791">
        <ele>0.559593354297</ele>
        <time>2024-06-02T07:32:31.000Z</time>
      </trkpt>
      <trkpt lat="27.642633" lon="-82.738636">
        <ele>0.544825880782</ele>
        <time>2024-06-02T07:32:36.000Z</time>
      </trkpt>
      <trkpt lat="27.642738" lon="-82.738588">
        <ele>0.540922607901</ele>
        <time>2024-06-02T07:32:37.000Z</time>
      </trkpt>
      <trkpt lat="27.642847" lon="-82.73856">
        <ele>0.537070897772</ele>
        <time>2024-06-02T07:32:38.000Z</time>
      </trkpt>
      <trkpt lat="27.64296" lon="-82.738599">
        <ele>0.532999467856</ele>
        <time>2024-06-02T07:32:39.000Z</time>
      </trkpt>
      <trkpt lat="27.643057" lon="-82.738673">
        <ele>0.528965587124</ele>
        <time>2024-06-02T07:32:40.000Z</time>
      </trkpt>
      <trkpt lat="27.643118" lon="-82.738727">
        <ele>0.52629457513</ele>
        <time>2024-06-02T07:32:41.000Z</time>
      </trkpt>
      <trkpt lat="27.643164" lon="-82.738857">
        <ele>0.522021751864</ele>
        <time>2024-06-02T07:32:42.000Z</time>
      </trkpt>
      <trkpt lat="27.643173" lon="-82.738988">
        <ele>0.518011241049</ele>
        <time>2024-06-02T07:32:43.000Z</time>
      </trkpt>
      <trkpt lat="27.643133" lon="-82.739099">
        <ele>0.514353592732</ele>
        <time>2024-06-02T07:32:44.000Z</time>
      </trkpt>
      <trkpt lat="27.643028" lon="-82.739245">
        <ele>0.508613551977</ele>
        <time>2024-06-02T07:32:46.000Z</time>
      </trkpt>
      <trkpt lat="27.642919" lon="-82.73929">
        <ele>0.504614570938</ele>
        <time>2024-06-02T07:32:47.000Z</time>
      </trkpt>
      <trkpt lat="27.642805" lon="-82.739304">
        <ele>0.500663419545</ele>
        <time>2024-06-02T07:32:48.000Z</time>
      </trkpt>
      <trkpt lat="27.642707" lon="-82.739271">
        <ele>0.497139707394</ele>
        <time>2024-06-02T07:32:49.000Z</time>
      </trkpt>
      <trkpt lat="27.642569" lon="-82.739158">
        <ele>0.491265561549</ele>
        <time>2024-06-02T07:32:51.000Z</time>
      </trkpt>
      <trkpt lat="27.641946" lon="-82.738828">
        <ele>0.467553765346</ele>
        <time>2024-06-02T07:32:59.000Z</time>
      </trkpt>
      <trkpt lat="27.641827" lon="-82.738764">
        <ele>0.463011935477</ele>
        <time>2024-06-02T07:33:00.000Z</time>
      </trkpt>
      <trkpt lat="27.639827" lon="-82.737737">
        <ele>0.38730511139</ele>
        <time>2024-06-02T07:33:24.000Z</time>
      </trkpt>
      <trkpt lat="27.63925" lon="-82.73743">
        <ele>0.365326262908</ele>
        <time>2024-06-02T07:33:31.000Z</time>
      </trkpt>
      <trkpt lat="27.637876" lon="-82.736719">
        <ele>0.313246373214</ele>
        <time>2024-06-02T07:33:48.000Z</time>
      </trkpt>
      <trkpt lat="27.637692" lon="-82.737163">
        <ele>0.298283956987</ele>
        <time>2024-06-02T07:33:53.000Z</time>
      </trkpt>
      <trkpt lat="27.638931" lon="-82.737819">
        <ele>0.251130269745</ele>
        <time>2024-06-02T07:34:08.000Z</time>
      </trkpt>
    </trkseg>
  </trk>
</gpx>

<!--
Performance optimized by W3 Total Cache. Learn more: https://www.boldgrid.com/w3-total-cache/?utm_source=w3tc&utm_medium=footer_comment&utm_campaign=free_plugin

Page Caching using Disk: Enhanced{w3tc_pagecache_reject_reason} 

Served from: www.aquabike.world @ 2026-05-10 20:41:55 by W3 Total Cache
-->